Time;durP1;ratioP1;P1;durP2;ratioP2;P2;SDS_P1;SDS_P2;PMS_P1;PMS_P2;Temp;Humidity;BMP_temperature;BMP_pressure;BME280_temperature;BME280_humidity;BME280_pressure;Samples;Min_cycle;Max_cycle;Signal;HPM_P1;HPM_P2
2023/04/28 00:01:16;;;;;;;7.43;5.70;;;;;;;0.63;100.00;101806.47;5044152;28;20207;-46
2023/04/28 00:03:41;;;;;;;7.88;5.57;;;;;;;0.69;100.00;101801.31;5037904;28;20265;-46
2023/04/28 00:06:07;;;;;;;8.45;5.53;;;;;;;0.65;100.00;101807.38;5028392;28;20217;-46
2023/04/28 00:08:32;;;;;;;8.35;5.43;;;;;;;0.73;100.00;101811.06;5032219;28;20643;-48
2023/04/28 00:10:59;;;;;;;6.40;5.45;;;;;;;0.74;100.00;101797.88;5034216;28;20206;-45
2023/04/28 00:13:24;;;;;;;6.05;5.45;;;;;;;0.61;100.00;101795.88;5036273;28;20233;-48
2023/04/28 00:15:51;;;;;;;8.75;5.60;;;;;;;0.38;100.00;101808.66;5034569;28;20636;-48
2023/04/28 00:18:18;;;;;;;7.28;5.68;;;;;;;0.38;100.00;101792.84;5024562;28;20321;-46
2023/04/28 00:20:43;;;;;;;8.48;5.43;;;;;;;0.43;100.00;101798.19;5034468;28;20205;-46
2023/04/28 00:23:09;;;;;;;8.88;5.82;;;;;;;0.46;100.00;101795.59;5038575;28;20635;-47
2023/04/28 00:25:34;;;;;;;7.85;5.45;;;;;;;0.53;100.00;101797.50;5036127;28;20274;-46
2023/04/28 00:28:00;;;;;;;8.90;6.20;;;;;;;0.43;100.00;101799.06;5029609;28;20184;-46
2023/04/28 00:30:26;;;;;;;7.25;5.95;;;;;;;0.32;100.00;101801.50;5028647;28;20195;-47
2023/04/28 00:32:52;;;;;;;8.10;6.18;;;;;;;0.34;100.00;101799.78;5039917;28;20184;-47
2023/04/28 00:35:17;;;;;;;9.80;5.90;;;;;;;0.26;100.00;101792.59;5028470;28;20636;-47
2023/04/28 00:37:43;;;;;;;8.68;5.68;;;;;;;0.26;100.00;101793.47;5025066;28;20176;-45
2023/04/28 00:40:09;;;;;;;7.65;6.25;;;;;;;0.36;100.00;101789.28;5031021;28;20609;-45
2023/04/28 00:42:35;;;;;;;10.73;5.95;;;;;;;0.34;100.00;101791.88;5038050;28;20180;-46
2023/04/28 00:45:04;;;;;;;7.13;6.10;;;;;;;0.36;100.00;101799.81;5032568;28;20250;-46
2023/04/28 00:47:32;;;;;;;7.75;6.50;;;;;;;0.44;100.00;101786.78;5030767;28;20227;-46
2023/04/28 00:49:58;;;;;;;8.38;6.80;;;;;;;0.34;100.00;101786.59;5033230;28;20264;-46
2023/04/28 00:52:24;;;;;;;9.77;6.05;;;;;;;0.37;100.00;101788.41;5028288;28;20216;-46
2023/04/28 00:54:50;;;;;;;12.20;7.15;;;;;;;0.28;100.00;101785.59;5030341;28;20233;-46
2023/04/28 00:57:15;;;;;;;11.07;7.57;;;;;;;0.32;100.00;101785.69;5028565;28;20185;-45
2023/04/28 00:59:41;;;;;;;10.90;6.57;;;;;;;0.39;100.00;101782.31;5039036;28;20173;-46
2023/04/28 01:02:07;;;;;;;9.80;6.68;;;;;;;0.45;100.00;101786.81;5038682;28;20676;-46
2023/04/28 01:04:32;;;;;;;10.13;7.40;;;;;;;0.24;100.00;101781.13;5032705;28;20192;-47
2023/04/28 01:06:59;;;;;;;9.30;6.70;;;;;;;0.27;100.00;101779.44;5026932;28;20203;-47
2023/04/28 01:09:25;;;;;;;11.15;7.93;;;;;;;0.19;100.00;101784.56;5034740;28;20296;-47
2023/04/28 01:11:52;;;;;;;9.43;7.75;;;;;;;0.16;100.00;101781.00;5028555;28;20268;-46
2023/04/28 01:14:36;;;;;;;11.40;7.70;;;;;;;0.05;100.00;101788.69;5027958;28;20175;-47
2023/04/28 01:17:02;;;;;;;10.70;7.30;;;;;;;-0.02;100.00;101787.66;5037340;28;20635;-45
2023/04/28 01:19:29;;;;;;;11.07;8.40;;;;;;;0.03;100.00;101786.88;5054227;28;20624;-46
2023/04/28 01:21:54;;;;;;;9.38;7.07;;;;;;;0.12;100.00;101785.28;5037351;28;20240;-47
2023/04/28 01:24:21;;;;;;;12.43;7.35;;;;;;;0.22;100.00;101783.75;5027864;28;20207;-44
2023/04/28 01:26:47;;;;;;;13.43;8.18;;;;;;;0.16;100.00;101787.13;5028692;28;20829;-45
2023/04/28 01:29:13;;;;;;;11.15;8.05;;;;;;;0.10;100.00;101794.03;5034628;28;20187;-46
2023/04/28 01:31:49;;;;;;;10.55;7.80;;;;;;;0.15;100.00;101789.72;5026907;28;20196;-47
2023/04/28 01:34:16;;;;;;;10.73;8.40;;;;;;;0.15;100.00;101779.19;5022146;28;20190;-46
2023/04/28 01:36:41;;;;;;;8.60;7.70;;;;;;;0.27;100.00;101786.47;5040418;28;20261;-48
2023/04/28 01:39:09;;;;;;;11.05;8.20;;;;;;;0.30;100.00;101787.41;5027917;28;20181;-47
2023/04/28 01:41:34;;;;;;;11.10;8.20;;;;;;;0.18;100.00;101781.91;5030861;28;20211;-47
2023/04/28 01:44:00;;;;;;;11.38;8.38;;;;;;;0.14;100.00;101787.97;5028068;28;20653;-48
2023/04/28 01:46:25;;;;;;;8.85;7.63;;;;;;;0.12;100.00;101789.69;5038304;28;20198;-46
2023/04/28 01:48:52;;;;;;;10.65;7.75;;;;;;;0.18;100.00;101779.28;5036480;28;20760;-46
2023/04/28 01:51:18;;;;;;;11.95;8.65;;;;;;;0.12;100.00;101777.41;5028432;28;20304;-47
2023/04/28 01:53:44;;;;;;;12.88;8.95;;;;;;;0.15;100.00;101776.56;5023183;28;20175;-48
2023/04/28 01:56:10;;;;;;;12.20;8.27;;;;;;;0.03;100.00;101786.88;5035070;28;20181;-47
2023/04/28 01:58:35;;;;;;;10.52;8.45;;;;;;;-0.05;100.00;101784.94;5032916;28;20197;-47
2023/04/28 02:01:01;;;;;;;11.00;8.32;;;;;;;-0.03;100.00;101777.97;5028755;28;20593;-46
2023/04/28 02:03:27;;;;;;;11.35;9.00;;;;;;;-0.19;100.00;101783.78;5028198;28;20187;-47
2023/04/28 02:05:54;;;;;;;12.32;8.93;;;;;;;-0.22;100.00;101781.97;5036012;28;20176;-46
2023/04/28 02:08:19;;;;;;;9.32;8.13;;;;;;;-0.05;100.00;101784.06;5032107;28;20189;-47
2023/04/28 02:10:45;;;;;;;10.45;8.30;;;;;;;0.00;100.00;101774.53;5027931;28;20196;-48
2023/04/28 02:13:11;;;;;;;15.15;9.93;;;;;;;-0.09;100.00;101769.06;5031103;28;20191;-46
2023/04/28 02:15:41;;;;;;;12.00;9.20;;;;;;;-0.20;100.00;101760.94;5036540;28;20323;-48
2023/04/28 02:18:06;;;;;;;10.48;9.00;;;;;;;-0.13;100.00;101767.22;5035651;28;20191;-46
2023/04/28 02:20:32;;;;;;;12.05;8.95;;;;;;;-0.03;100.00;101770.06;5025157;28;20196;-46
2023/04/28 02:22:57;;;;;;;13.30;9.68;;;;;;;-0.26;100.00;101771.34;5031087;28;20196;-46
2023/04/28 02:25:24;;;;;;;14.32;9.48;;;;;;;-0.32;100.00;101773.84;5026013;28;20182;-47
2023/04/28 02:27:50;;;;;;;13.10;9.90;;;;;;;-0.27;100.00;101770.44;5032929;28;20203;-46
2023/04/28 02:30:15;;;;;;;11.63;9.20;;;;;;;-0.10;100.00;101768.16;5026738;28;20667;-47
2023/04/28 02:32:41;;;;;;;11.65;9.10;;;;;;;-0.09;100.00;101764.69;5023407;28;20187;-47
2023/04/28 02:35:07;;;;;;;9.40;8.32;;;;;;;-0.07;100.00;101751.53;5034995;28;20233;-47
2023/04/28 02:37:32;;;;;;;12.75;9.00;;;;;;;0.02;100.00;101758.72;5028598;28;20176;-47
2023/04/28 02:39:58;;;;;;;11.48;9.30;;;;;;;-0.06;100.00;101748.94;5023671;28;20200;-47
2023/04/28 02:42:23;;;;;;;14.30;9.48;;;;;;;-0.05;100.00;101750.69;5035033;28;20436;-46
2023/04/28 02:44:49;;;;;;;14.05;9.60;;;;;;;-0.18;100.00;101753.06;5032576;28;20192;-47
2023/04/28 02:47:14;;;;;;;15.88;9.43;;;;;;;-0.07;100.00;101752.41;5034086;28;20196;-48
2023/04/28 02:49:40;;;;;;;15.63;10.23;;;;;;;-0.16;100.00;101752.22;5029110;28;20173;-47
2023/04/28 02:52:06;;;;;;;12.13;9.45;;;;;;;-0.21;100.00;101743.38;5036666;28;20191;-48
2023/04/28 02:54:33;;;;;;;12.20;10.02;;;;;;;-0.30;100.00;101748.44;5042828;28;20263;-48
2023/04/28 02:57:00;;;;;;;11.23;9.43;;;;;;;-0.31;100.00;101744.91;5035264;28;20175;-46
2023/04/28 02:59:26;;;;;;;13.73;9.82;;;;;;;-0.33;100.00;101748.34;5032567;28;20179;-49
2023/04/28 03:01:51;;;;;;;13.48;10.32;;;;;;;-0.26;100.00;101729.22;5036700;28;20648;-45
2023/04/28 03:04:17;;;;;;;13.98;9.95;;;;;;;-0.31;100.00;101736.13;5033851;28;20558;-46
2023/04/28 03:06:43;;;;;;;13.55;10.25;;;;;;;-0.35;100.00;101736.91;5021729;28;20204;-47
2023/04/28 03:09:09;;;;;;;15.45;10.25;;;;;;;-0.26;100.00;101734.50;5033351;28;20633;-46
2023/04/28 03:11:35;;;;;;;14.52;10.23;;;;;;;-0.29;100.00;101730.03;5024111;28;20211;-49
2023/04/28 03:14:02;;;;;;;12.38;10.05;;;;;;;-0.28;100.00;101731.81;5036706;28;20627;-47
2023/04/28 03:16:27;;;;;;;14.98;10.65;;;;;;;-0.25;100.00;101723.97;5031052;28;20202;-48
2023/04/28 03:18:53;;;;;;;12.85;9.88;;;;;;;-0.25;100.00;101725.72;5031288;28;20192;-47
2023/04/28 03:21:19;;;;;;;14.68;10.75;;;;;;;-0.24;100.00;101724.84;5041523;28;20259;-50
2023/04/28 03:23:44;;;;;;;14.50;9.52;;;;;;;-0.19;100.00;101719.69;5031523;28;20201;-47
2023/04/28 03:26:10;;;;;;;13.63;10.18;;;;;;;-0.22;100.00;101715.22;5023550;28;20214;-49
2023/04/28 03:28:36;;;;;;;14.10;10.88;;;;;;;-0.16;100.00;101714.47;5032221;28;20177;-48
2023/04/28 03:31:01;;;;;;;14.18;9.98;;;;;;;-0.02;100.00;101713.03;5022417;28;20200;-47
2023/04/28 03:33:28;;;;;;;13.30;10.23;;;;;;;-0.02;100.00;101713.03;5036431;28;20650;-47
2023/04/28 03:35:54;;;;;;;14.10;10.73;;;;;;;-0.19;100.00;101696.88;5031507;28;20185;-49
2023/04/28 03:38:20;;;;;;;14.85;10.32;;;;;;;-0.18;100.00;101700.38;5027546;28;20188;-48
2023/04/28 03:40:46;;;;;;;13.77;10.82;;;;;;;-0.23;100.00;101706.44;5037252;28;20290;-47
2023/04/28 03:43:29;;;;;;;11.30;10.07;;;;;;;-0.27;100.00;101709.88;5031838;28;20319;-47
2023/04/28 03:46:28;;;;;;;12.23;10.13;;;;;;;-0.24;100.00;101709.03;4983386;28;20295;-45
2023/04/28 03:48:54;;;;;;;17.23;11.98;;;;;;;-0.24;100.00;101701.16;5034033;28;20189;-47
2023/04/28 03:51:20;;;;;;;17.10;12.18;;;;;;;-0.20;100.00;101697.72;5042780;28;20244;-46
2023/04/28 03:53:45;;;;;;;14.35;10.60;;;;;;;-0.06;100.00;101683.09;5027252;28;20184;-46
2023/04/28 03:56:12;;;;;;;16.02;11.20;;;;;;;-0.02;100.00;101679.66;5031070;28;20238;-50
2023/04/28 03:58:38;;;;;;;14.68;11.18;;;;;;;-0.20;100.00;101687.19;5029663;28;20211;-47
2023/04/28 04:01:04;;;;;;;17.02;11.57;;;;;;;-0.23;100.00;101682.75;5035609;28;20664;-48
2023/04/28 04:03:29;;;;;;;16.75;11.13;;;;;;;-0.07;100.00;101680.41;5030019;28;20674;-53
2023/04/28 04:05:55;;;;;;;12.48;10.38;;;;;;;0.03;100.00;101674.47;5035757;28;20548;-47
2023/04/28 04:08:21;;;;;;;14.77;11.07;;;;;;;0.04;100.00;101677.97;5037682;28;20179;-47
2023/04/28 04:10:47;;;;;;;15.60;10.45;;;;;;;-0.06;100.00;101669.91;5036511;28;20226;-50
2023/04/28 04:13:13;;;;;;;17.17;10.65;;;;;;;0.07;100.00;101673.66;5029406;28;20265;-49
2023/04/28 04:15:39;;;;;;;14.02;10.45;;;;;;;0.09;100.00;101663.13;5033011;28;20654;-48
2023/04/28 04:18:05;;;;;;;12.85;9.13;;;;;;;0.22;100.00;101680.97;5037319;28;20390;-47
2023/04/28 04:20:49;;;;;;;15.57;10.70;;;;;;;0.25;100.00;101678.38;5038962;28;20205;-48
2023/04/28 04:23:15;;;;;;;15.23;10.23;;;;;;;0.14;100.00;101670.28;5031416;28;20205;-47
2023/04/28 04:25:41;;;;;;;11.98;9.45;;;;;;;0.21;100.00;101668.63;5026274;28;20638;-48
2023/04/28 04:28:08;;;;;;;10.93;9.10;;;;;;;0.31;100.00;101661.78;5037945;28;20558;-50
2023/04/28 04:30:34;;;;;;;10.80;9.52;;;;;;;0.32;100.00;101664.44;5030295;28;20199;-47
2023/04/28 04:32:59;;;;;;;10.35;9.27;;;;;;;0.30;100.00;101668.78;5023071;28;20570;-48
2023/04/28 04:35:25;;;;;;;11.18;8.40;;;;;;;0.43;100.00;101658.47;5034194;28;20179;-49
2023/04/28 04:37:51;;;;;;;10.77;8.70;;;;;;;0.45;100.00;101654.13;5034177;28;20263;-47
2023/04/28 04:40:16;;;;;;;11.65;8.80;;;;;;;0.51;100.00;101659.50;5029606;28;20337;-51
2023/04/28 04:42:47;;;;;;;10.57;9.10;;;;;;;0.46;100.00;101654.16;5028819;28;20195;-47
2023/04/28 04:45:17;;;;;;;10.82;9.73;;;;;;;0.55;100.00;101661.31;5024270;28;20188;-47
2023/04/28 04:47:43;;;;;;;10.10;8.95;;;;;;;0.59;100.00;101652.56;5035326;28;20697;-49
2023/04/28 04:50:10;;;;;;;9.70;8.50;;;;;;;0.64;100.00;101661.47;5029671;28;20232;-47
2023/04/28 04:52:36;;;;;;;9.90;8.90;;;;;;;0.76;100.00;101650.19;5033307;28;20592;-45
2023/04/28 04:55:02;;;;;;;9.82;8.80;;;;;;;0.72;100.00;101651.94;5041784;28;20366;-47
2023/04/28 04:57:28;;;;;;;9.70;8.70;;;;;;;0.72;100.00;101649.28;5030683;28;20204;-48
2023/04/28 05:00:20;;;;;;;10.77;9.43;;;;;;;0.58;100.00;101642.91;5021184;28;20208;-52
2023/04/28 05:02:46;;;;;;;11.13;8.55;;;;;;;0.61;100.00;101642.94;5030857;28;20226;-50
2023/04/28 05:05:13;;;;;;;10.50;9.13;;;;;;;0.71;100.00;101631.69;5039125;28;20185;-49
2023/04/28 05:07:39;;;;;;;11.20;9.80;;;;;;;0.95;100.00;101641.69;5033987;28;20344;-47
2023/04/28 05:10:06;;;;;;;18.88;11.00;;;;;;;0.97;100.00;101642.59;5027276;28;20730;-46
2023/04/28 05:12:32;;;;;;;12.02;9.90;;;;;;;1.46;100.00;101634.44;5022360;28;20681;-45
2023/04/28 05:14:57;;;;;;;13.20;9.82;;;;;;;1.84;100.00;101626.97;5037003;28;20172;-46
2023/04/28 05:17:23;;;;;;;13.95;11.07;;;;;;;2.09;100.00;101635.13;5028241;28;20169;-46
2023/04/28 05:19:49;;;;;;;13.85;10.48;;;;;;;2.44;100.00;101630.16;5025160;28;20701;-49
2023/04/28 05:22:15;;;;;;;12.48;10.45;;;;;;;2.70;100.00;101626.81;5033488;28;20254;-48
2023/04/28 05:24:40;;;;;;;12.07;10.60;;;;;;;2.91;100.00;101633.13;5038948;28;20226;-49
2023/04/28 05:27:06;;;;;;;14.40;10.90;;;;;;;3.04;100.00;101621.72;5025554;28;20230;-47
2023/04/28 05:29:33;;;;;;;12.10;9.98;;;;;;;3.33;100.00;101606.00;5027828;28;20171;-46
2023/04/28 05:31:58;;;;;;;15.80;10.23;;;;;;;3.51;100.00;101610.47;5033521;28;20230;-49
2023/04/28 05:34:24;;;;;;;11.10;9.30;;;;;;;3.74;100.00;101602.59;5035450;28;20719;-47
2023/04/28 05:36:51;;;;;;;11.75;8.98;;;;;;;4.13;100.00;101593.81;5032306;28;20179;-46
2023/04/28 05:39:18;;;;;;;10.05;7.43;;;;;;;4.25;100.00;101590.28;5034891;28;20192;-48
2023/04/28 05:41:44;;;;;;;8.57;7.43;;;;;;;4.67;100.00;101598.19;5033378;28;20309;-46
2023/04/28 05:44:10;;;;;;;12.00;8.45;;;;;;;4.74;100.00;101595.56;5032935;28;20264;-47
2023/04/28 05:46:36;;;;;;;10.98;6.85;;;;;;;4.81;100.00;101598.16;5024423;28;20204;-49
2023/04/28 05:49:02;;;;;;;8.45;6.93;;;;;;;5.20;100.00;101586.53;5029714;28;20631;-47
2023/04/28 05:51:32;;;;;;;10.07;7.75;;;;;;;5.43;100.00;101583.78;5037423;28;20236;-47
2023/04/28 05:53:58;;;;;;;9.70;8.27;;;;;;;5.87;100.00;101568.47;5042146;28;20233;-48
2023/04/28 05:56:25;;;;;;;13.60;10.05;;;;;;;6.09;100.00;101567.44;5038508;28;20180;-54
2023/04/28 05:58:52;;;;;;;12.73;9.93;;;;;;;6.55;100.00;101571.50;5030181;28;20220;-49
2023/04/28 06:01:17;;;;;;;15.80;11.70;;;;;;;6.62;100.00;101559.00;5034609;28;20229;-47
2023/04/28 06:03:43;;;;;;;15.52;11.57;;;;;;;6.41;100.00;101563.66;5026326;28;20205;-48
2023/04/28 06:06:10;;;;;;;15.68;13.00;;;;;;;6.88;100.00;101561.38;5032522;28;20299;-47
2023/04/28 06:08:35;;;;;;;15.27;12.65;;;;;;;6.71;100.00;101559.81;5029421;28;20622;-43
2023/04/28 06:11:03;;;;;;;16.67;12.80;;;;;;;6.44;100.00;101554.75;5029008;28;20682;-46
2023/04/28 06:13:28;;;;;;;16.25;13.63;;;;;;;6.31;100.00;101545.97;5022177;28;20242;-46
2023/04/28 06:15:54;;;;;;;18.05;14.15;;;;;;;6.22;100.00;101554.94;5029854;28;20173;-45
2023/04/28 06:18:20;;;;;;;19.63;14.68;;;;;;;6.24;99.93;101554.94;5013463;28;20192;-44
2023/04/28 06:20:46;;;;;;;19.15;14.10;;;;;;;6.09;100.00;101545.28;5029752;28;20188;-44
2023/04/28 06:23:12;;;;;;;19.00;14.63;;;;;;;6.12;100.00;101548.81;5013396;28;20555;-41
2023/04/28 06:25:43;;;;;;;17.08;15.18;;;;;;;6.05;100.00;101549.75;5029528;28;20180;-43
2023/04/28 06:28:08;;;;;;;18.35;14.27;;;;;;;6.06;100.00;101546.19;5014531;28;20605;-41
2023/04/28 06:30:34;;;;;;;19.30;15.68;;;;;;;6.09;100.00;101554.16;5012914;28;20188;-43
2023/04/28 06:33:02;;;;;;;18.13;14.95;;;;;;;6.08;100.00;101547.06;5014834;28;20160;-45
2023/04/28 06:35:27;;;;;;;21.48;15.40;;;;;;;6.05;100.00;101546.22;5012986;28;20176;-45
2023/04/28 06:37:53;;;;;;;20.75;15.60;;;;;;;6.04;100.00;101542.66;5012862;28;20272;-47
2023/04/28 06:40:20;;;;;;;20.00;15.10;;;;;;;6.14;100.00;101551.44;5016840;28;20286;-44
2023/04/28 06:42:50;;;;;;;16.92;14.65;;;;;;;6.30;100.00;101544.22;5032309;28;20203;-42
2023/04/28 06:45:21;;;;;;;20.85;13.73;;;;;;;6.49;100.00;101544.91;5032393;28;20633;-47
2023/04/28 06:47:47;;;;;;;18.52;14.98;;;;;;;6.88;100.00;101532.97;5033893;28;20224;-44
2023/04/28 06:50:12;;;;;;;17.75;14.90;;;;;;;7.15;99.71;101530.84;5032729;28;20682;-44
2023/04/28 06:52:38;;;;;;;17.33;14.40;;;;;;;7.41;98.45;101523.41;5033952;28;20247;-46
2023/04/28 06:55:08;;;;;;;14.18;12.75;;;;;;;7.80;96.65;101521.03;5033927;28;20167;-46
2023/04/28 06:57:34;;;;;;;14.52;11.60;;;;;;;7.80;94.84;101521.03;5015967;28;20683;-43
2023/04/28 07:00:00;;;;;;;12.55;11.25;;;;;;;7.82;92.37;101508.56;5032185;28;20215;-44
2023/04/28 07:02:25;;;;;;;12.95;10.07;;;;;;;8.07;90.06;101501.94;5034033;28;20211;-45
2023/04/28 07:04:51;;;;;;;12.13;9.82;;;;;;;8.22;87.84;101481.22;5033783;28;20172;-47
2023/04/28 07:07:17;;;;;;;11.25;9.77;;;;;;;8.32;85.81;101483.72;5033231;28;20195;-43
2023/04/28 07:09:42;;;;;;;11.10;9.20;;;;;;;8.37;84.63;101476.50;5033347;28;20206;-49
2023/04/28 07:12:08;;;;;;;11.68;9.32;;;;;;;8.38;83.27;101463.13;5033521;28;20635;-44
2023/04/28 07:14:33;;;;;;;9.85;8.40;;;;;;;9.02;82.17;101465.44;5033355;28;20172;-43
2023/04/28 07:16:59;;;;;;;13.90;8.60;;;;;;;8.99;80.86;101458.34;5033654;28;20176;-44
2023/04/28 07:19:24;;;;;;;8.85;7.95;;;;;;;9.37;79.14;101445.03;5033375;28;20168;-42
2023/04/28 07:21:50;;;;;;;10.82;7.85;;;;;;;9.49;78.73;101459.00;5033195;28;20243;-42
2023/04/28 07:24:15;;;;;;;8.55;7.68;;;;;;;8.95;77.98;101445.97;5033169;28;20172;-45
2023/04/28 07:26:41;;;;;;;9.50;7.53;;;;;;;8.92;78.20;101448.72;5032313;28;20192;-47
2023/04/28 07:29:07;;;;;;;10.95;7.68;;;;;;;8.74;77.87;101441.06;5033274;28;20183;-43
2023/04/28 07:31:33;;;;;;;8.82;8.00;;;;;;;9.36;78.05;101451.28;5033431;28;20729;-42
2023/04/28 07:33:59;;;;;;;8.52;7.70;;;;;;;9.31;77.30;101451.41;5030773;28;20168;-43
2023/04/28 07:36:25;;;;;;;10.40;8.20;;;;;;;9.42;76.90;101440.44;5013151;28;20216;-44
2023/04/28 07:38:51;;;;;;;10.20;7.88;;;;;;;9.37;76.36;101427.19;5013537;28;20180;-44
2023/04/28 07:41:17;;;;;;;13.13;7.90;;;;;;;9.72;76.53;101433.47;5012956;28;20253;-42
2023/04/28 07:43:43;;;;;;;9.10;7.60;;;;;;;9.76;75.92;101427.13;5013152;28;20200;-46
2023/04/28 07:46:09;;;;;;;8.77;6.90;;;;;;;10.11;74.77;101425.34;5013436;28;20283;-45
2023/04/28 07:48:35;;;;;;;9.18;7.03;;;;;;;10.21;73.49;101410.81;5013447;28;20169;-43
2023/04/28 07:51:01;;;;;;;7.70;6.97;;;;;;;10.40;72.52;101396.91;5014355;28;21344;-46
2023/04/28 07:53:27;;;;;;;7.95;6.30;;;;;;;10.58;71.30;101395.50;5032555;28;20168;-44
2023/04/28 07:55:53;;;;;;;7.45;6.13;;;;;;;10.54;70.38;101389.38;5032891;28;20180;-45
2023/04/28 07:58:19;;;;;;;7.15;6.35;;;;;;;10.52;70.32;101386.72;5032945;28;20234;-47
2023/04/28 08:00:45;;;;;;;9.20;6.78;;;;;;;10.76;70.03;101381.56;5032351;28;20188;-43
2023/04/28 08:03:11;;;;;;;10.48;6.35;;;;;;;10.99;69.61;101380.84;5032678;28;20176;-45
2023/04/28 08:05:38;;;;;;;8.00;5.65;;;;;;;11.25;68.71;101371.97;5032233;28;20527;-44
2023/04/28 08:08:03;;;;;;;5.88;5.28;;;;;;;11.03;67.91;101361.06;5012771;28;20595;-46
2023/04/28 08:10:29;;;;;;;5.65;5.05;;;;;;;11.51;67.68;101356.84;5030705;28;20224;-44
2023/04/28 08:12:54;;;;;;;6.22;4.85;;;;;;;11.20;66.61;101356.97;5050571;28;20182;-45
2023/04/28 08:15:20;;;;;;;5.78;4.95;;;;;;;11.54;65.97;101337.94;5034494;28;20176;-47
2023/04/28 08:17:45;;;;;;;5.68;4.05;;;;;;;11.26;64.75;101333.50;5013499;28;20211;-47
2023/04/28 08:20:14;;;;;;;6.15;4.43;;;;;;;11.51;64.36;101321.94;5013324;28;20197;-44
2023/04/28 08:22:39;;;;;;;5.38;4.10;;;;;;;11.59;63.66;101319.00;5030640;28;20176;-43
2023/04/28 08:25:05;;;;;;;7.53;4.57;;;;;;;11.50;63.05;101317.50;5032019;28;20157;-41
2023/04/28 08:27:31;;;;;;;6.38;4.00;;;;;;;11.83;62.83;101311.88;5038354;28;20195;-41
2023/04/28 08:29:56;;;;;;;4.80;4.28;;;;;;;11.78;61.22;101290.56;5051457;28;20232;-44
2023/04/28 08:32:22;;;;;;;5.72;4.05;;;;;;;11.66;60.74;101282.97;5051971;28;20590;-43
2023/04/28 08:34:47;;;;;;;6.78;3.75;;;;;;;11.17;61.51;101279.28;5050519;28;20195;-43
2023/04/28 08:37:13;;;;;;;5.22;4.03;;;;;;;11.55;61.30;101280.66;5037753;28;20237;-41
2023/04/28 08:39:39;;;;;;;7.35;3.90;;;;;;;11.33;59.84;101270.69;5031857;28;20188;-43
2023/04/28 08:42:04;;;;;;;4.82;3.80;;;;;;;11.60;60.41;101276.00;5038741;28;20265;-43
2023/04/28 08:44:38;;;;;;;6.07;3.22;;;;;;;11.84;59.48;101260.81;5015606;28;20196;-42
2023/04/28 08:47:11;;;;;;;5.22;3.40;;;;;;;12.21;58.36;101250.56;5036928;28;20295;-42
2023/04/28 08:49:38;;;;;;;4.25;3.25;;;;;;;11.93;57.67;101241.72;5031673;28;20160;-42
2023/04/28 08:52:11;;;;;;;3.65;3.20;;;;;;;11.77;57.97;101239.66;5018610;28;20200;-43
2023/04/28 08:54:38;;;;;;;4.00;2.67;;;;;;;12.08;57.15;101236.72;5011991;28;20164;-44
2023/04/28 08:57:04;;;;;;;5.07;2.50;;;;;;;11.73;56.34;101217.41;5011848;28;20169;-42
2023/04/28 08:59:30;;;;;;;3.22;2.13;;;;;;;12.08;55.13;101212.53;5023654;28;20202;-45
2023/04/28 09:01:55;;;;;;;3.05;2.30;;;;;;;12.31;55.16;101209.84;5026814;28;20200;-45
2023/04/28 09:04:21;;;;;;;3.95;2.40;;;;;;;12.07;55.31;101197.34;5026036;28;20212;-45
2023/04/28 09:06:47;;;;;;;4.93;2.63;;;;;;;12.38;54.46;101196.19;5025986;28;20582;-46
2023/04/28 09:09:19;;;;;;;3.47;2.80;;;;;;;12.33;54.06;101185.59;5027375;28;20290;-43
2023/04/28 09:11:57;;;;;;;3.78;2.55;;;;;;;12.75;53.61;101180.28;5028191;28;20200;-45
2023/04/28 09:14:23;;;;;;;9.23;2.42;;;;;;;12.26;53.12;101168.81;5031493;28;20164;-42
2023/04/28 09:16:49;;;;;;;4.03;2.10;;;;;;;12.11;52.51;101158.69;5031323;28;20638;-42
2023/04/28 09:19:16;;;;;;;4.15;2.35;;;;;;;12.85;52.83;101174.50;5025880;28;20199;-42
2023/04/28 09:21:52;;;;;;;3.60;2.25;;;;;;;12.80;51.75;101136.19;5015645;28;20283;-44
2023/04/28 09:24:32;;;;;;;3.33;2.13;;;;;;;12.30;51.34;101126.59;5011669;28;20919;-42
2023/04/28 09:27:01;;;;;;;3.72;1.90;;;;;;;12.49;51.26;101124.91;5025624;28;20239;-44
2023/04/28 09:29:27;;;;;;;3.45;2.28;;;;;;;12.51;50.93;101114.13;5050773;28;20183;-44
2023/04/28 09:31:53;;;;;;;6.38;2.60;;;;;;;12.16;50.86;101111.94;5031114;28;20258;-43
2023/04/28 09:34:20;;;;;;;4.80;2.40;;;;;;;12.54;51.01;101122.91;5020243;28;20206;-44
2023/04/28 09:36:46;;;;;;;3.40;2.17;;;;;;;12.56;49.97;101104.03;5022004;28;20173;-43
2023/04/28 09:39:11;;;;;;;3.75;2.55;;;;;;;12.47;49.32;101094.53;5011220;28;20181;-42
2023/04/28 09:41:39;;;;;;;5.10;2.20;;;;;;;12.85;48.68;101093.84;5011030;28;20206;-43
2023/04/28 09:44:20;;;;;;;3.00;1.90;;;;;;;12.21;47.03;101067.88;5011296;28;20215;-48
2023/04/28 09:46:46;;;;;;;3.42;1.70;;;;;;;12.23;46.09;101041.84;5018070;28;20675;-44
2023/04/28 09:49:12;;;;;;;2.53;1.73;;;;;;;12.40;45.78;101033.03;5025373;28;20192;-44
2023/04/28 09:51:38;;;;;;;2.13;1.85;;;;;;;12.35;45.22;101020.72;5010856;28;20601;-43
2023/04/28 09:54:04;;;;;;;2.65;1.38;;;;;;;12.91;45.52;101045.19;5012458;28;20656;-43
2023/04/28 09:56:32;;;;;;;3.92;1.73;;;;;;;12.77;45.18;101043.09;5011114;28;20287;-42
2023/04/28 09:58:58;;;;;;;5.25;1.70;;;;;;;12.83;44.98;101029.38;5027979;28;20187;-44
2023/04/28 10:01:26;;;;;;;2.38;1.67;;;;;;;12.80;44.61;101020.59;5019941;28;20205;-43
2023/04/28 10:03:53;;;;;;;3.65;2.10;;;;;;;12.82;44.72;101016.00;5022974;28;20180;-44
2023/04/28 10:06:19;;;;;;;3.70;1.67;;;;;;;13.03;45.04;101031.19;5019037;28;20205;-42
2023/04/28 10:08:47;;;;;;;2.42;1.70;;;;;;;12.97;44.94;101009.94;5014124;28;20199;-43
2023/04/28 10:11:15;;;;;;;2.88;1.80;;;;;;;13.39;45.13;101025.06;5028975;28;20589;-45
2023/04/28 10:13:42;;;;;;;6.70;2.35;;;;;;;13.03;44.88;101006.09;5031449;28;20330;-45
2023/04/28 10:16:09;;;;;;;5.00;2.50;;;;;;;13.07;44.73;101013.94;5020018;28;20172;-43
2023/04/28 10:18:35;;;;;;;5.75;2.17;;;;;;;13.33;45.48;101019.97;5011032;28;20176;-42
2023/04/28 10:21:03;;;;;;;3.38;1.58;;;;;;;13.23;44.62;101021.31;5010507;28;20192;-45
2023/04/28 10:24:07;;;;;;;3.60;1.70;;;;;;;12.70;43.94;100995.91;5010815;28;20161;-45
2023/04/28 10:27:08;;;;;;;2.97;2.03;;;;;;;12.67;44.26;100985.31;5010955;28;20525;-44
2023/04/28 10:29:34;;;;;;;4.38;1.70;;;;;;;12.67;44.52;100985.31;5029481;28;20222;-44
2023/04/28 10:32:18;;;;;;;2.42;1.77;;;;;;;13.15;44.02;100997.47;5030441;28;20233;-43
2023/04/28 10:34:44;;;;;;;4.97;2.00;;;;;;;13.22;44.50;100995.34;5030206;28;20694;-42
2023/04/28 10:37:10;;;;;;;3.60;1.70;;;;;;;13.36;44.09;100991.13;5023601;28;20365;-43
2023/04/28 10:39:36;;;;;;;2.47;2.00;;;;;;;13.06;44.38;100996.06;5013116;28;20263;-46
2023/04/28 10:42:02;;;;;;;4.38;2.22;;;;;;;12.99;45.10;100992.78;5031493;28;20209;-46
2023/04/28 10:44:27;;;;;;;3.83;2.00;;;;;;;12.96;45.87;100998.28;5026225;28;20192;-46
2023/04/28 10:47:03;;;;;;;4.32;2.00;;;;;;;12.79;44.55;100987.44;5030918;28;20207;-48
2023/04/28 10:49:56;;;;;;;2.58;2.22;;;;;;;12.84;44.73;100981.88;5031547;28;20581;-47
2023/04/28 10:52:37;;;;;;;2.60;2.10;;;;;;;12.81;45.17;100985.53;5014362;28;20284;-46
2023/04/28 10:55:38;;;;;;;5.32;2.58;;;;;;;12.74;45.98;100997.53;5030603;28;20211;-45
2023/04/28 10:58:19;;;;;;;2.53;2.22;;;;;;;12.43;45.85;100974.69;5028610;28;20214;-46
2023/04/28 11:00:46;;;;;;;2.53;1.88;;;;;;;12.69;45.48;100986.09;5027648;28;20639;-45
2023/04/28 11:04:11;;;;;;;3.20;2.53;;;;;;;12.75;45.42;100975.09;5040338;28;20233;-48
2023/04/28 11:06:45;;;;;;;3.00;2.00;;;;;;;13.24;45.60;100977.31;5032191;28;20611;-45
2023/04/28 11:09:11;;;;;;;5.40;2.38;;;;;;;13.63;44.85;100982.66;5037038;28;20188;-45
2023/04/28 11:11:38;;;;;;;5.53;2.60;;;;;;;13.03;44.71;100974.69;5040963;28;20580;-46
2023/04/28 11:14:16;;;;;;;3.08;2.03;;;;;;;12.96;44.55;100962.47;5029676;28;20188;-44
2023/04/28 11:17:04;;;;;;;2.88;2.25;;;;;;;13.00;44.56;100969.44;5033059;28;20168;-44
2023/04/28 11:19:32;;;;;;;3.08;2.17;;;;;;;13.01;45.55;100970.31;5023025;28;20366;-46
2023/04/28 11:22:19;;;;;;;3.63;2.22;;;;;;;13.05;45.23;100974.63;5031999;28;20299;-46